createdAt,value
2023-01-19T00:00:31.254Z,100056.41
2023-01-19T00:02:57.830Z,100047.56
2023-01-19T00:05:24.455Z,100047.56
2023-01-19T00:07:50.944Z,100047.41
2023-01-19T00:10:17.622Z,100049.94
2023-01-19T00:12:44.164Z,100043.78
2023-01-19T00:15:11.585Z,100068.63
2023-01-19T00:17:40.842Z,100066.63
2023-01-19T00:20:09.050Z,100047.94
2023-01-19T00:22:35.567Z,100044.31
2023-01-19T00:25:02.073Z,100041.78
2023-01-19T00:27:30.425Z,100038.28
2023-01-19T00:29:56.935Z,100041.94
2023-01-19T00:32:23.446Z,100054.28
2023-01-19T00:34:52.230Z,100057.94
2023-01-19T00:37:18.786Z,100062.44
2023-01-19T00:39:45.317Z,100068.63
2023-01-19T00:42:31.787Z,100068.63
2023-01-19T00:44:58.387Z,100066.94
2023-01-19T00:47:25.111Z,100066.09
2023-01-19T00:49:51.718Z,100060.75
2023-01-19T00:52:18.241Z,100056.41
2023-01-19T00:54:44.791Z,100052.06
2023-01-19T00:57:11.299Z,100051.25
2023-01-19T00:59:37.854Z,100052.91
2023-01-19T01:02:04.575Z,100047.56
2023-01-19T01:04:31.349Z,100046.75
2023-01-19T01:06:57.853Z,100051.06
2023-01-19T01:09:24.467Z,100059.91
2023-01-19T01:11:51.619Z,100064.41
2023-01-19T01:14:18.469Z,100061.75
2023-01-19T01:16:45.096Z,100070.59
2023-01-19T01:19:11.638Z,100066.94
2023-01-19T01:21:38.204Z,100064.28
2023-01-19T01:24:05.331Z,100072.28
2023-01-19T01:26:31.825Z,100072.28
2023-01-19T01:28:58.343Z,100066.94
2023-01-19T01:31:25.345Z,100064.41
2023-01-19T01:33:51.970Z,100077.63
2023-01-19T01:36:21.478Z,100071.41
2023-01-19T01:38:49.193Z,100078.59
2023-01-19T01:41:15.723Z,100077.63
2023-01-19T01:43:56.518Z,100084.91
2023-01-19T01:46:22.997Z,100098.97
2023-01-19T01:48:55.354Z,100090.09
2023-01-19T01:51:44.262Z,100101.94
2023-01-19T01:54:21.569Z,100114.97
2023-01-19T01:56:51.405Z,100107.94
2023-01-19T01:59:26.129Z,100116.78
2023-01-19T02:02:14.325Z,100129.28
2023-01-19T02:04:58.325Z,100127.59
2023-01-19T02:08:01.878Z,100130.13
2023-01-19T02:10:46.856Z,100131.81
2023-01-19T02:13:22.610Z,100131.81
2023-01-19T02:15:54.624Z,100137.16
2023-01-19T02:18:23.529Z,100125.66
2023-01-19T02:21:14.672Z,100131.94
2023-01-19T02:23:49.626Z,100139.66
2023-01-19T02:26:21.076Z,100141.66
2023-01-19T02:28:57.478Z,100151.47
2023-01-19T02:31:24.970Z,100157.66
2023-01-19T02:33:52.715Z,100169.28
2023-01-19T02:36:25.283Z,100189.81
2023-01-19T02:38:56.138Z,100192.47
2023-01-19T02:41:27.924Z,100203.16
2023-01-19T02:43:57.357Z,100198.81
2023-01-19T02:46:24.611Z,100201.47
2023-01-19T02:48:51.134Z,100204.97
2023-01-19T02:51:22.573Z,100206.97
2023-01-19T02:54:02.710Z,100207.94
2023-01-19T02:56:43.185Z,100206.25
2023-01-19T02:59:26.765Z,100207.09
2023-01-19T03:01:54.050Z,100194.59
2023-01-19T03:04:51.876Z,100179.75
2023-01-19T03:07:40.030Z,100168.25
2023-01-19T03:10:37.155Z,100165.56
2023-01-19T03:13:39.377Z,100177.22
2023-01-19T03:16:28.910Z,100177.75
2023-01-19T03:19:08.136Z,100181.25
2023-01-19T03:21:36.721Z,100179.41
2023-01-19T03:24:07.113Z,100189.97
2023-01-19T03:26:40.402Z,100189.25
2023-01-19T03:29:10.992Z,100197.13
2023-01-19T03:31:39.691Z,100201.63
2023-01-19T03:34:09.566Z,100243.44
2023-01-19T03:36:41.043Z,100237.16
2023-01-19T03:39:09.695Z,100233.66
2023-01-19T03:41:39.375Z,100240.78
2023-01-19T03:44:07.700Z,100227.44
2023-01-19T03:46:34.733Z,100225.94
2023-01-19T03:49:01.240Z,100218.06
2023-01-19T03:51:27.882Z,100217.94
2023-01-19T03:53:54.379Z,100219.88
2023-01-19T03:56:23.841Z,100214.72
2023-01-19T03:58:51.436Z,100207.72
2023-01-19T04:01:22.755Z,100209.53
2023-01-19T04:03:50.542Z,100214.88
2023-01-19T04:06:18.197Z,100221.19
2023-01-19T04:08:45.229Z,100220.34
2023-01-19T04:11:12.249Z,100216.84
2023-01-19T04:13:38.960Z,100221.19
2023-01-19T04:16:06.312Z,100223.84
2023-01-19T04:18:34.696Z,100228.34
2023-01-19T04:21:07.375Z,100222.31
2023-01-19T04:23:34.597Z,100231.00
2023-01-19T04:26:04.145Z,100228.50
2023-01-19T04:28:31.236Z,100230.31
2023-01-19T04:30:58.211Z,100229.50
2023-01-19T04:33:25.417Z,100228.63
2023-01-19T04:35:54.465Z,100227.78
2023-01-19T04:38:21.474Z,100220.94
2023-01-19T04:40:49.201Z,100226.97
2023-01-19T04:43:15.787Z,100232.44
2023-01-19T04:45:44.673Z,100234.28
2023-01-19T04:48:12.295Z,100239.44
2023-01-19T04:50:39.043Z,100233.41
2023-01-19T04:53:05.712Z,100237.63
2023-01-19T04:55:32.258Z,100252.63
2023-01-19T04:57:59.385Z,100263.31
2023-01-19T05:00:26.857Z,100265.00
2023-01-19T05:02:53.702Z,100269.50
2023-01-19T05:05:20.300Z,100275.69
2023-01-19T05:07:46.993Z,100270.34
2023-01-19T05:10:13.735Z,100275.69
2023-01-19T05:12:42.036Z,100265.00
2023-01-19T05:15:09.665Z,100278.19
2023-01-19T05:17:36.626Z,100286.19
2023-01-19T05:20:04.356Z,100282.69
2023-01-19T05:22:31.063Z,100286.19
2023-01-19T05:24:58.358Z,100287.19
2023-01-19T05:27:24.925Z,100286.34
2023-01-19T05:29:51.962Z,100281.84
2023-01-19T05:32:18.561Z,100285.34
2023-01-19T05:34:45.028Z,100281.84
2023-01-19T05:37:11.654Z,100290.69
2023-01-19T05:39:38.180Z,100287.19
2023-01-19T05:42:04.872Z,100284.50
2023-01-19T05:44:31.349Z,100283.53
2023-01-19T05:46:57.864Z,100297.69
2023-01-19T05:49:24.568Z,100291.53
2023-01-19T05:51:51.070Z,100296.03
2023-01-19T05:54:17.590Z,100300.38
2023-01-19T05:56:44.207Z,100303.88
2023-01-19T05:59:11.093Z,100310.03
2023-01-19T06:01:39.820Z,100304.69
2023-01-19T06:04:06.892Z,100302.91
2023-01-19T06:06:33.453Z,100309.91
2023-01-19T06:08:59.965Z,100317.09
2023-01-19T06:11:26.499Z,100320.59
2023-01-19T06:13:53.064Z,100324.78
2023-01-19T06:16:19.600Z,100325.63
2023-01-19T06:18:46.184Z,100327.31
2023-01-19T06:21:14.305Z,100328.16
2023-01-19T06:23:40.923Z,100329.16
2023-01-19T06:26:07.680Z,100329.16
2023-01-19T06:28:34.320Z,100334.59
2023-01-19T06:31:01.202Z,100330.97
2023-01-19T06:33:28.628Z,100349.66
2023-01-19T06:35:55.848Z,100338.09
2023-01-19T06:38:22.828Z,100340.78
2023-01-19T06:40:54.616Z,100353.28
2023-01-19T06:43:21.645Z,100355.94
2023-01-19T06:45:48.452Z,100348.94
2023-01-19T06:48:15.443Z,100355.25
2023-01-19T06:50:44.703Z,100360.59
2023-01-19T06:53:12.034Z,100360.59
2023-01-19T06:55:39.228Z,100369.59
2023-01-19T06:58:06.559Z,100373.22
2023-01-19T07:00:33.096Z,100374.22
2023-01-19T07:03:00.109Z,100388.28
2023-01-19T07:05:26.962Z,100388.53
2023-01-19T07:07:57.559Z,100393.88
2023-01-19T07:10:24.725Z,100399.22
2023-01-19T07:12:51.419Z,100396.66
2023-01-19T07:15:22.612Z,100401.16
2023-01-19T07:17:49.769Z,100410.16
2023-01-19T07:20:17.451Z,100406.78
2023-01-19T07:22:46.508Z,100419.28
2023-01-19T07:25:14.290Z,100416.63
2023-01-19T07:27:40.791Z,100424.63
2023-01-19T07:30:08.629Z,100425.59
2023-01-19T07:32:35.902Z,100426.44
2023-01-19T07:35:02.716Z,100436.13
2023-01-19T07:37:29.255Z,100438.94
2023-01-19T07:39:55.907Z,100437.94
2023-01-19T07:42:22.771Z,100434.44
2023-01-19T07:44:49.326Z,100435.28
2023-01-19T07:47:15.861Z,100434.44
2023-01-19T07:49:42.506Z,100445.13
2023-01-19T07:52:09.591Z,100453.13
2023-01-19T07:54:36.169Z,100454.09
2023-01-19T07:57:02.694Z,100460.28
2023-01-19T07:59:30.343Z,100457.63
2023-01-19T08:01:59.365Z,100464.78
2023-01-19T08:04:27.321Z,100472.78
2023-01-19T08:06:54.698Z,100479.09
2023-01-19T08:09:21.437Z,100491.44
2023-01-19T08:11:48.011Z,100496.94
2023-01-19T08:14:14.599Z,100490.72
2023-01-19T08:16:41.161Z,100505.63
2023-01-19T08:19:07.703Z,100511.13
2023-01-19T08:21:35.856Z,100504.94
2023-01-19T08:24:02.478Z,100511.94
2023-01-19T08:26:34.424Z,100508.44
2023-01-19T08:29:04.017Z,100515.47
2023-01-19T08:31:30.732Z,100518.97
2023-01-19T08:33:57.683Z,100522.63
2023-01-19T08:36:25.081Z,100524.28
2023-01-19T08:38:52.000Z,100531.31
2023-01-19T08:41:18.587Z,100535.69
2023-01-19T08:43:45.481Z,100532.88
2023-01-19T08:46:12.283Z,100532.88
2023-01-19T08:48:40.028Z,100537.22
2023-01-19T08:51:06.668Z,100532.03
2023-01-19T08:53:33.298Z,100539.88
2023-01-19T08:56:03.504Z,100538.91
2023-01-19T08:58:30.035Z,100538.91
2023-01-19T09:00:56.901Z,100545.94
2023-01-19T09:03:23.761Z,100538.63
2023-01-19T09:05:50.774Z,100546.34
2023-01-19T09:08:17.481Z,100551.53
2023-01-19T09:10:49.747Z,100546.75
2023-01-19T09:13:18.492Z,100552.66
2023-01-19T09:15:45.461Z,100551.56
2023-01-19T09:18:15.504Z,100560.25
2023-01-19T09:20:43.637Z,100558.97
2023-01-19T09:23:15.486Z,100565.88
2023-01-19T09:25:44.067Z,100563.78
2023-01-19T09:28:12.315Z,100570.50
2023-01-19T09:30:40.717Z,100573.59
2023-01-19T09:33:12.147Z,100569.66
2023-01-19T09:35:39.808Z,100572.75
2023-01-19T09:38:08.863Z,100568.81
2023-01-19T09:40:42.175Z,100575.53
2023-01-19T09:43:14.628Z,100573.31
2023-01-19T09:46:00.327Z,100576.38
2023-01-19T09:48:34.572Z,100578.63
2023-01-19T09:51:04.571Z,100586.09
2023-01-19T09:53:52.121Z,100590.16
2023-01-19T09:56:22.799Z,100593.06
2023-01-19T09:58:51.069Z,100590.84
2023-01-19T10:01:49.805Z,100590.28
2023-01-19T10:04:33.820Z,100596.72
2023-01-19T10:07:09.470Z,100597.13
2023-01-19T10:10:10.505Z,100591.22
2023-01-19T10:12:52.657Z,100597.78
2023-01-19T10:15:29.625Z,100606.09
2023-01-19T10:18:34.919Z,100613.50
2023-01-19T10:21:10.568Z,100606.75
2023-01-19T10:23:46.194Z,100603.63
2023-01-19T10:26:25.507Z,100609.38
2023-01-19T10:28:57.473Z,100606.25
2023-01-19T10:31:24.929Z,100602.28
2023-01-19T10:33:52.943Z,100602.00
2023-01-19T10:36:25.730Z,100612.25
2023-01-19T10:38:52.426Z,100604.75
2023-01-19T10:41:26.465Z,100611.66
2023-01-19T10:44:04.357Z,100615.00
2023-01-19T10:46:48.522Z,100609.53
2023-01-19T10:49:38.497Z,100610.03
2023-01-19T10:52:08.025Z,100615.94
2023-01-19T10:54:37.319Z,100604.13
2023-01-19T10:57:07.755Z,100599.44
2023-01-19T10:59:38.077Z,100604.66
2023-01-19T11:02:28.489Z,100599.84
2023-01-19T11:05:01.178Z,100595.19
2023-01-19T11:07:33.449Z,100599.41
2023-01-19T11:10:20.710Z,100606.44
2023-01-19T11:13:16.228Z,100607.16
2023-01-19T11:15:44.007Z,100613.06
2023-01-19T11:18:32.043Z,100613.91
2023-01-19T11:21:06.481Z,100618.09
2023-01-19T11:23:42.911Z,100622.47
2023-01-19T11:26:16.251Z,100624.16
2023-01-19T11:28:48.468Z,100617.78
2023-01-19T11:31:15.150Z,100615.94
2023-01-19T11:33:53.454Z,100621.47
2023-01-19T11:36:22.647Z,100623.16
2023-01-19T11:39:11.226Z,100615.13
2023-01-19T11:41:39.516Z,100625.97
2023-01-19T11:44:21.168Z,100630.34
2023-01-19T11:46:53.533Z,100626.81
2023-01-19T11:49:46.957Z,100636.69
2023-01-19T11:52:31.968Z,100633.84
2023-01-19T11:55:12.647Z,100638.19
2023-01-19T11:57:46.047Z,100628.34
2023-01-19T12:00:42.753Z,100632.72
2023-01-19T12:03:30.641Z,100627.19
2023-01-19T12:06:18.276Z,100627.75
2023-01-19T12:09:02.169Z,100632.09
2023-01-19T12:11:35.794Z,100635.47
2023-01-19T12:14:02.722Z,100627.13
2023-01-19T12:16:31.365Z,100630.66
2023-01-19T12:19:05.123Z,100630.50
2023-01-19T12:21:31.503Z,100628.66
2023-01-19T12:24:18.000Z,100622.00
2023-01-19T12:26:55.924Z,100632.44
2023-01-19T12:29:26.000Z,100621.56
2023-01-19T12:32:14.450Z,100624.09
2023-01-19T12:34:46.617Z,100628.44
2023-01-19T12:37:31.297Z,100636.31
2023-01-19T12:40:00.953Z,100635.34
2023-01-19T12:42:28.624Z,100635.19
2023-01-19T12:45:21.021Z,100625.47
2023-01-19T12:47:53.032Z,100628.81
2023-01-19T12:50:23.324Z,100635.00
2023-01-19T12:52:51.902Z,100635.84
2023-01-19T12:55:38.977Z,100637.69
2023-01-19T12:58:18.701Z,100630.50
2023-01-19T13:00:48.168Z,100635.72
2023-01-19T13:03:17.389Z,100633.88
2023-01-19T13:05:43.901Z,100631.19
2023-01-19T13:08:11.341Z,100631.88
2023-01-19T13:10:59.373Z,100631.88
2023-01-19T13:13:38.748Z,100634.25
2023-01-19T13:16:25.033Z,100631.56
2023-01-19T13:19:06.725Z,100627.88
2023-01-19T13:21:36.335Z,100624.25
2023-01-19T13:24:05.817Z,100637.31
2023-01-19T13:26:41.573Z,100637.31
2023-01-19T13:29:15.036Z,100629.97
2023-01-19T13:31:52.705Z,100638.53
2023-01-19T13:34:25.208Z,100634.88
2023-01-19T13:36:54.498Z,100640.09
2023-01-19T13:39:28.763Z,100640.91
2023-01-19T13:42:00.880Z,100642.44
2023-01-19T13:44:41.346Z,100647.78
2023-01-19T13:47:15.214Z,100645.81
2023-01-19T13:49:44.842Z,100651.00
2023-01-19T13:52:21.912Z,100652.84
2023-01-19T13:54:55.674Z,100653.56
2023-01-19T13:57:26.304Z,100654.53
2023-01-19T14:00:01.863Z,100653.22
2023-01-19T14:02:28.752Z,100650.53
2023-01-19T14:04:57.197Z,100656.72
2023-01-19T14:07:26.494Z,100658.56
2023-01-19T14:10:09.456Z,100662.09
2023-01-19T14:12:41.636Z,100671.00
2023-01-19T14:15:14.557Z,100675.34
2023-01-19T14:17:42.095Z,100679.03
2023-01-19T14:20:28.499Z,100672.97
2023-01-19T14:22:55.127Z,100673.81
2023-01-19T14:25:36.104Z,100673.97
2023-01-19T14:28:39.902Z,100683.88
2023-01-19T14:31:23.995Z,100683.03
2023-01-19T14:33:53.359Z,100682.31
2023-01-19T14:36:40.860Z,100684.31
2023-01-19T14:39:21.874Z,100683.63
2023-01-19T14:41:52.701Z,100674.91
2023-01-19T14:44:45.642Z,100681.69
2023-01-19T14:47:27.393Z,100683.84
2023-01-19T14:49:55.954Z,100689.19
2023-01-19T14:52:30.462Z,100686.81
2023-01-19T14:54:58.007Z,100690.78
2023-01-19T14:57:24.744Z,100685.59
2023-01-19T14:59:52.219Z,100687.75
2023-01-19T15:02:19.309Z,100685.22
2023-01-19T15:04:48.034Z,100693.38
2023-01-19T15:07:19.241Z,100701.03
2023-01-19T15:09:47.084Z,100704.72
2023-01-19T15:12:17.477Z,100705.00
2023-01-19T15:14:44.941Z,100701.97
2023-01-19T15:17:25.831Z,100699.72
2023-01-19T15:19:56.154Z,100707.91
2023-01-19T15:22:26.732Z,100704.53
2023-01-19T15:24:57.479Z,100705.84
2023-01-19T15:27:24.314Z,100718.50
2023-01-19T15:29:50.867Z,100718.84
2023-01-19T15:32:17.416Z,100719.97
2023-01-19T15:34:44.121Z,100720.97
2023-01-19T15:37:10.660Z,100716.56
2023-01-19T15:39:37.195Z,100718.56
2023-01-19T15:42:03.853Z,100726.59
2023-01-19T15:44:30.617Z,100727.69
2023-01-19T15:46:57.561Z,100717.97
2023-01-19T15:49:24.245Z,100724.47
2023-01-19T15:51:50.805Z,100729.81
2023-01-19T15:54:18.569Z,100735.31
2023-01-19T15:56:45.097Z,100731.09
2023-01-19T15:59:11.629Z,100733.09
2023-01-19T16:01:40.091Z,100735.91
2023-01-19T16:04:09.459Z,100736.22
2023-01-19T16:06:36.014Z,100746.91
2023-01-19T16:09:03.835Z,100743.69
2023-01-19T16:11:32.958Z,100742.97
2023-01-19T16:13:59.614Z,100738.78
2023-01-19T16:16:28.424Z,100744.41
2023-01-19T16:18:55.568Z,100740.91
2023-01-19T16:21:22.520Z,100747.38
2023-01-19T16:23:49.310Z,100747.53
2023-01-19T16:26:34.431Z,100755.16
2023-01-19T16:29:07.976Z,100764.03
2023-01-19T16:31:34.599Z,100756.13
2023-01-19T16:34:01.224Z,100760.78
2023-01-19T16:36:30.088Z,100763.59
2023-01-19T16:39:06.504Z,100763.19
2023-01-19T16:41:34.344Z,100765.72
2023-01-19T16:44:01.007Z,100773.03
2023-01-19T16:46:35.606Z,100777.56
2023-01-19T16:49:06.165Z,100780.22
2023-01-19T16:51:33.636Z,100775.00
2023-01-19T16:54:00.266Z,100783.03
2023-01-19T16:56:26.793Z,100788.38
2023-01-19T16:58:57.673Z,100791.91
2023-01-19T17:01:27.474Z,100788.38
2023-01-19T17:03:54.853Z,100793.72
2023-01-19T17:06:22.851Z,100788.38
2023-01-19T17:08:50.505Z,100787.53
2023-01-19T17:11:20.669Z,100794.72
2023-01-19T17:13:54.506Z,100800.22
2023-01-19T17:16:22.280Z,100801.91
2023-01-19T17:18:49.244Z,100803.75
2023-01-19T17:21:19.396Z,100802.19
2023-01-19T17:23:48.650Z,100808.53
2023-01-19T17:26:16.438Z,100806.84
2023-01-19T17:28:43.164Z,100802.50
2023-01-19T17:31:15.560Z,100802.78
2023-01-19T17:33:47.057Z,100804.59
2023-01-19T17:36:16.121Z,100809.22
2023-01-19T17:38:43.147Z,100810.22
2023-01-19T17:41:18.498Z,100808.66
2023-01-19T17:43:45.558Z,100819.38
2023-01-19T17:46:12.522Z,100831.19
2023-01-19T17:48:39.380Z,100830.47
2023-01-19T17:51:10.827Z,100837.66
2023-01-19T17:53:39.367Z,100844.13
2023-01-19T17:56:11.940Z,100839.91
2023-01-19T17:58:39.915Z,100847.09
2023-01-19T18:01:14.906Z,100848.06
2023-01-19T18:03:42.337Z,100846.38
2023-01-19T18:06:09.723Z,100839.34
2023-01-19T18:08:39.585Z,100831.44
2023-01-19T18:11:06.921Z,100831.75
2023-01-19T18:13:33.556Z,100830.75
2023-01-19T18:16:09.429Z,100835.38
2023-01-19T18:18:36.906Z,100830.91
2023-01-19T18:21:09.534Z,100834.69
2023-01-19T18:23:36.678Z,100832.88
2023-01-19T18:26:15.956Z,100837.38
2023-01-19T18:28:42.510Z,100837.53
2023-01-19T18:31:10.947Z,100850.16
2023-01-19T18:33:38.791Z,100852.84
2023-01-19T18:36:06.357Z,100850.31
2023-01-19T18:38:33.404Z,100856.63
2023-01-19T18:41:13.613Z,100859.44
2023-01-19T18:43:40.625Z,100868.31
2023-01-19T18:46:07.785Z,100871.97
2023-01-19T18:48:35.358Z,100880.97
2023-01-19T18:51:06.639Z,100885.47
2023-01-19T18:53:33.552Z,100889.94
2023-01-19T18:56:02.065Z,100894.59
2023-01-19T18:58:29.705Z,100907.13
2023-01-19T19:00:56.635Z,100899.22
2023-01-19T19:03:23.522Z,100908.22
2023-01-19T19:05:50.440Z,100903.03
2023-01-19T19:08:17.353Z,100907.53
2023-01-19T19:10:44.397Z,100904.03
2023-01-19T19:13:15.730Z,100905.97
2023-01-19T19:15:44.278Z,100908.75
2023-01-19T19:18:13.875Z,100901.72
2023-01-19T19:20:42.022Z,100888.34
2023-01-19T19:23:08.856Z,100879.63
2023-01-19T19:25:35.450Z,100872.47
2023-01-19T19:28:02.008Z,100882.44
2023-01-19T19:30:28.561Z,100903.81
2023-01-19T19:32:56.468Z,100917.31
2023-01-19T19:35:23.808Z,100919.97
2023-01-19T19:37:51.471Z,100920.81
2023-01-19T19:40:17.989Z,100923.63
2023-01-19T19:42:44.596Z,100921.97
2023-01-19T19:45:11.897Z,100937.97
2023-01-19T19:47:38.472Z,100942.44
2023-01-19T19:50:05.268Z,100940.78
2023-01-19T19:52:32.034Z,100944.44
2023-01-19T19:54:58.586Z,100950.63
2023-01-19T19:57:25.215Z,100954.28
2023-01-19T19:59:51.776Z,100954.28
2023-01-19T20:02:18.270Z,100953.53
2023-01-19T20:04:45.120Z,100955.38
2023-01-19T20:07:11.715Z,100966.91
2023-01-19T20:09:38.276Z,100964.38
2023-01-19T20:12:04.948Z,100961.72
2023-01-19T20:14:31.530Z,100968.16
2023-01-19T20:16:58.090Z,100975.22
2023-01-19T20:19:24.764Z,100975.22
2023-01-19T20:21:51.345Z,100982.50
2023-01-19T20:24:20.195Z,100993.19
2023-01-19T20:26:52.613Z,100992.47
2023-01-19T20:29:20.082Z,100989.81
2023-01-19T20:31:49.853Z,100991.59
2023-01-19T20:34:18.794Z,100994.16
2023-01-19T20:36:49.650Z,100986.25
2023-01-19T20:39:17.771Z,100981.91
2023-01-19T20:41:45.091Z,100992.47
2023-01-19T20:44:24.023Z,100993.59
2023-01-19T20:46:51.420Z,100994.44
2023-01-19T20:49:18.190Z,100990.91
2023-01-19T20:51:46.790Z,100995.41
2023-01-19T20:54:15.995Z,101004.41
2023-01-19T20:56:42.597Z,101004.53
2023-01-19T20:59:10.362Z,101005.38
2023-01-19T21:01:37.324Z,101006.34
2023-01-19T21:04:04.112Z,100994.09
2023-01-19T21:06:31.106Z,101001.41
2023-01-19T21:08:57.785Z,101005.75
2023-01-19T21:11:24.859Z,100998.84
2023-01-19T21:13:55.523Z,101005.19
2023-01-19T21:16:27.661Z,101006.16
2023-01-19T21:18:54.904Z,101005.44
2023-01-19T21:21:30.396Z,101011.50
2023-01-19T21:23:58.983Z,101004.47
2023-01-19T21:26:25.799Z,101014.31
2023-01-19T21:28:52.354Z,101021.47
2023-01-19T21:31:20.889Z,101032.13
2023-01-19T21:33:49.090Z,101036.63
2023-01-19T21:36:15.631Z,101037.63
2023-01-19T21:38:42.141Z,101043.81
2023-01-19T21:41:11.937Z,101042.13
2023-01-19T21:43:41.654Z,101048.31
2023-01-19T21:46:14.428Z,101053.78
2023-01-19T21:48:42.324Z,101060.94
2023-01-19T21:51:09.827Z,101064.56
2023-01-19T21:53:36.321Z,101062.91
2023-01-19T21:56:03.034Z,101071.88
2023-01-19T21:58:29.527Z,101072.97
2023-01-19T22:01:04.357Z,101081.97
2023-01-19T22:03:31.017Z,101086.34
2023-01-19T22:06:03.839Z,101085.63
2023-01-19T22:08:30.403Z,101081.97
2023-01-19T22:10:56.966Z,101073.22
2023-01-19T22:13:23.644Z,101076.78
2023-01-19T22:15:50.285Z,101072.53
2023-01-19T22:18:16.869Z,101065.50
2023-01-19T22:20:43.407Z,101077.13
2023-01-19T22:23:10.246Z,101087.81
2023-01-19T22:25:36.791Z,101075.44
2023-01-19T22:28:03.398Z,101079.94
2023-01-19T22:30:30.009Z,101080.09
2023-01-19T22:32:56.601Z,101095.13
2023-01-19T22:35:23.116Z,101090.75
2023-01-19T22:37:49.661Z,101097.06
2023-01-19T22:40:16.752Z,101093.53
2023-01-19T22:42:49.581Z,101085.69
2023-01-19T22:45:16.249Z,101094.53
2023-01-19T22:47:42.901Z,101096.34
2023-01-19T22:50:09.985Z,101091.00
2023-01-19T22:52:36.515Z,101100.84
2023-01-19T22:55:03.127Z,101094.66
2023-01-19T22:57:34.283Z,101089.44
2023-01-19T23:00:00.781Z,101101.94
2023-01-19T23:02:27.413Z,101104.59
2023-01-19T23:04:53.906Z,101097.59
2023-01-19T23:07:20.397Z,101101.09
2023-01-19T23:09:46.884Z,101099.41
2023-01-19T23:12:13.419Z,101095.03
2023-01-19T23:14:39.984Z,101091.50
2023-01-19T23:17:06.629Z,101088.84
2023-01-19T23:19:33.163Z,101091.66
2023-01-19T23:21:59.689Z,101103.16
2023-01-19T23:24:26.248Z,101101.47
2023-01-19T23:26:52.836Z,101101.47
2023-01-19T23:29:19.813Z,101102.47
2023-01-19T23:31:48.432Z,101105.84
2023-01-19T23:34:15.452Z,101105.00
2023-01-19T23:36:42.938Z,101106.94
2023-01-19T23:39:18.887Z,101114.94
2023-01-19T23:41:46.089Z,101121.16
2023-01-19T23:44:12.764Z,101116.75
2023-01-19T23:46:39.283Z,101118.59
2023-01-19T23:49:05.819Z,101125.75
2023-01-19T23:51:32.763Z,101129.41
2023-01-19T23:54:00.154Z,101128.41
2023-01-19T23:56:29.668Z,101131.22
2023-01-19T23:59:22.215Z,101137.66
